Details From VHHH - Hong Kong Intl
To VDPP - Phnom Penh Intl
Flight Number -
Tags generated
Created
Modified
Stats Distance 869 nm / 1,609 km
Max Altitude 34,000 ft / 10,363 m
Waypoints 13
Social Downloads 1
Likes 0
Share VATSIM

Download

Looking for another format? Having issues loading an existing format? Contact us
Advertisement - Login to hide

Notes

Basic altitude profile: - Ascent Rate: 2500ft/min - Ascent Speed: 250kts - Cruise Altitude: 35000ft - Cruise Speed: 420kts - Descent Rate: 1500ft/min - Descent Speed: 250kts Options: - Use NATs: yes - Use PACOTS: yes - Use low airways: yes - Use high airways: yes

Route

VHHH CH A1 PAPRA R575 VIBUN B329 PNH VDPP

ID Type Via Altitude Latitude Longitude Leg Dist Tot Dist Heading (true) Name
O VHHH APT - 0 ft / 0 m 22.30899˚ 113.91461˚ - 0 nm - Hong Kong Intl
CH VOR - 2,900 ft / 884 m 22.21954˚ 114.03006˚ 8 nm 8 nm 130° / 130° CHEUNG CHAU VOR-DME
DAGON FIX A1 (AWY-LO) 34,000 ft / 10,363 m 19.08833˚ 111.86500˚ 223 nm 232 nm 213° / 213° -
CAVOI FIX A1 (AWY-HI) 34,000 ft / 10,363 m 17.22500˚ 110.00000˚ 154 nm 386 nm 224° / 223° -
BUNTA FIX A1 (AWY-HI) 34,000 ft / 10,363 m 16.83333˚ 109.39500˚ 41 nm 428 nm 236° / 236° -
KANGU FIX A1 (AWY-HI) 34,000 ft / 10,363 m 16.35417˚ 108.66472˚ 50 nm 479 nm 236° / 235° -
DAN VOR A1 (AWY-HI) 34,000 ft / 10,363 m 16.05276˚ 108.19823˚ 32 nm 512 nm 236° / 236° DANANG VOR-DME
TANNA FIX A1 (AWY-HI) 34,000 ft / 10,363 m 15.90333˚ 107.65889˚ 32 nm 544 nm 254° / 254° -
PAPRA FIX A1 (AWY-HI) 34,000 ft / 10,363 m 15.76667˚ 107.18333˚ 28 nm 573 nm 253° / 253° -
LAVAN FIX R575 (AWY-HI) 34,000 ft / 10,363 m 14.14217˚ 105.73000˚ 128 nm 702 nm 221° / 221° -
VIBUN FIX R575 (AWY-HI) 28,900 ft / 8,809 m 13.79667˚ 105.43167˚ 27 nm 729 nm 220° / 220° -
PNH VOR B329 (AWY-LO) 10,000 ft / 3,048 m 11.54667˚ 104.84167˚ 139 nm 868 nm 194° / 194° PHNOM PENH VOR-DME
O VDPP APT - 0 ft / 0 m 11.54654˚ 104.84414˚ 0 nm 868 nm 93° / 93° Phnom Penh Intl

Altitude Profile

Advertisement - Login to hide

Weather


0- 5 10 15 20 25 30 35+ Temperature / ° C

Clouds and Precipitation
Forecast for 2017-12-13 06:00 UTC. Updated 13 minutes ago

Ground ~20,000 ft ~40,000 ft Winds

VHHH

Details ICAO VHHH (HKG)
Name Hong Kong Intl
Region Hong Kong
Timezone Unknown (UTC+0.0)
Stats Elevation 28 ft / 9 m (AMSL)
Location 22.308995° 113.914610°
Runways 2
Magnetic Variation 2.822° W

METAR

VHHH 130530Z 07009KT 9999 FEW022 SCT035 20/13 Q1017 NOSIG

Decode

TAF

TAF VHHH 122300Z 1300/1406 09015KT 8000 FEW040 TX21/1306Z TX21/1406Z TN18/1323Z

Decode

Departure Runways

ID Width Length Bearing (true) Bearing (mag) Surface Threshold Offset Overrun Length
07L 197 ft / 60 m 12,457 ft / 3,797 m 70.79° 73.61° Asphalt 564 ft / 172 m 866 ft / 264 m
07R 197 ft / 60 m 12,458 ft / 3,797 m 70.79° 73.61° Asphalt 525 ft / 160 m 886 ft / 270 m
25L 197 ft / 60 m 12,458 ft / 3,797 m 250.80° 253.62° Asphalt 0 ft / 0 m 840 ft / 256 m
25R 197 ft / 60 m 12,457 ft / 3,797 m 250.80° 253.62° Asphalt 581 ft / 177 m 860 ft / 262 m

VDPP

Details ICAO VDPP (PNH)
Name Phnom Penh Intl
Region Cambodia
Timezone Asia/Phnom_Penh (UTC+7.0)
Stats Elevation 40 ft / 12 m (AMSL)
Location 11.546542° 104.844142°
Runways 1
Magnetic Variation 0.493° W

METAR

VDPP 130500Z VRB05KT 9999 FEW017 31/23 Q1010

Decode

TAF

TAF VDPP 122300Z 1300/1318 01005KT 9999 SCT017= TAF VDSR 122300Z 1300/1318 02005KT 9999 SCT017

Decode

Destination Runways

ID Width Length Bearing (true) Bearing (mag) Surface Threshold Offset Overrun Length
05 144 ft / 44 m 9,815 ft / 2,992 m 45.61° 46.10° Asphalt 400 ft / 122 m 0 ft / 0 m
23 144 ft / 44 m 9,815 ft / 2,992 m 225.61° 226.10° Asphalt 492 ft / 150 m 0 ft / 0 m

Approach Navaids

Runway Type Ident Frequency Range Bearing (true) Bearing (mag) Slope Elevation
23 Localiser IPNP 109.70 MHz 18 nm / 33 km 225.62° 226.11° - 40 ft / 12 m (AMSL)
23 Glidescope IPNP 109.70 MHz 10 nm / 19 km 225.61° 226.10° 3.00° 37 ft / 11 m (AMSL)

Popular Alternatives